createdAt,value
2022-09-11T00:00:29.618Z,18.26
2022-09-11T00:03:02.668Z,18.26
2022-09-11T00:05:39.367Z,18.27
2022-09-11T00:08:14.284Z,18.24
2022-09-11T00:10:48.776Z,18.24
2022-09-11T00:13:24.471Z,18.23
2022-09-11T00:15:57.395Z,18.21
2022-09-11T00:18:30.868Z,18.19
2022-09-11T00:21:05.566Z,18.16
2022-09-11T00:23:38.477Z,18.14
2022-09-11T00:26:11.852Z,18.13
2022-09-11T00:28:46.973Z,18.10
2022-09-11T00:31:22.066Z,18.07
2022-09-11T00:33:55.249Z,18.06
2022-09-11T00:36:31.572Z,18.05
2022-09-11T00:39:05.483Z,18.04
2022-09-11T00:41:40.355Z,18.03
2022-09-11T00:44:51.061Z,18.05
2022-09-11T00:47:25.261Z,18.05
2022-09-11T00:50:07.859Z,18.07
2022-09-11T00:52:52.846Z,18.08
2022-09-11T00:55:28.637Z,18.12
2022-09-11T00:58:05.497Z,18.15
2022-09-11T01:00:40.595Z,18.17
2022-09-11T01:03:15.035Z,18.21
2022-09-11T01:05:48.411Z,18.23
2022-09-11T01:08:22.761Z,18.23
2022-09-11T01:11:05.940Z,18.27
2022-09-11T01:13:47.210Z,18.29
2022-09-11T01:16:31.565Z,18.29
2022-09-11T01:19:19.487Z,18.30
2022-09-11T01:22:31.493Z,18.31
2022-09-11T01:25:19.453Z,18.34
2022-09-11T01:27:55.842Z,18.34
2022-09-11T01:30:34.614Z,18.34
2022-09-11T01:33:18.595Z,18.35
2022-09-11T01:35:57.841Z,18.34
2022-09-11T01:38:36.428Z,18.35
2022-09-11T01:41:14.331Z,18.34
2022-09-11T01:43:53.195Z,18.35
2022-09-11T01:46:29.075Z,18.34
2022-09-11T01:49:07.832Z,18.35
2022-09-11T01:51:42.233Z,18.33
2022-09-11T01:54:19.813Z,18.32
2022-09-11T01:56:57.835Z,18.31
2022-09-11T01:59:38.137Z,18.31
2022-09-11T02:02:15.239Z,18.28
2022-09-11T02:04:54.733Z,18.26
2022-09-11T02:07:32.749Z,18.23
2022-09-11T02:10:10.923Z,18.21
2022-09-11T02:12:51.360Z,18.18
2022-09-11T02:15:32.705Z,18.17
2022-09-11T02:18:13.164Z,18.14
2022-09-11T02:20:47.668Z,18.12
2022-09-11T02:23:22.927Z,18.13
2022-09-11T02:25:56.291Z,18.12
2022-09-11T02:28:29.587Z,18.11
2022-09-11T02:31:04.463Z,18.13
2022-09-11T02:33:39.065Z,18.12
2022-09-11T02:36:27.232Z,18.15
2022-09-11T02:39:17.078Z,18.15
2022-09-11T02:42:16.548Z,18.17
2022-09-11T02:44:56.009Z,18.20
2022-09-11T02:47:43.506Z,18.22
2022-09-11T02:50:29.716Z,18.23
2022-09-11T02:53:08.926Z,18.25
2022-09-11T02:55:55.836Z,18.28
2022-09-11T02:58:33.549Z,18.27
2022-09-11T03:01:08.838Z,18.28
2022-09-11T03:03:46.619Z,18.30
2022-09-11T03:06:22.136Z,18.31
2022-09-11T03:08:55.819Z,18.30
2022-09-11T03:11:28.989Z,18.32
2022-09-11T03:14:01.830Z,18.32
2022-09-11T03:16:34.699Z,18.33
2022-09-11T03:19:09.707Z,18.34
2022-09-11T03:21:42.957Z,18.33
2022-09-11T03:24:17.217Z,18.33
2022-09-11T03:26:50.409Z,18.33
2022-09-11T03:29:23.330Z,18.34
2022-09-11T03:31:58.920Z,18.33
2022-09-11T03:34:33.823Z,18.34
2022-09-11T03:37:06.607Z,18.35
2022-09-11T03:39:39.487Z,18.34
2022-09-11T03:42:13.091Z,18.35
2022-09-11T03:44:49.130Z,18.35
2022-09-11T03:47:22.321Z,18.37
2022-09-11T03:49:56.889Z,18.38
2022-09-11T03:52:30.515Z,18.36
2022-09-11T03:55:03.426Z,18.37
2022-09-11T03:57:36.610Z,18.37
2022-09-11T04:00:11.356Z,18.39
2022-09-11T04:02:44.136Z,18.39
2022-09-11T04:05:18.463Z,18.39
2022-09-11T04:07:53.266Z,18.39
2022-09-11T04:10:26.202Z,18.37
2022-09-11T04:12:59.338Z,18.38
2022-09-11T04:15:33.017Z,18.37
2022-09-11T04:18:07.265Z,18.38
2022-09-11T04:20:41.532Z,18.37
2022-09-11T04:23:14.289Z,18.37
2022-09-11T04:25:47.652Z,18.36
2022-09-11T04:28:22.458Z,18.37
2022-09-11T04:30:57.290Z,18.38
2022-09-11T04:33:30.058Z,18.38
2022-09-11T04:36:08.030Z,18.39
2022-09-11T04:38:42.100Z,18.39
2022-09-11T04:41:16.270Z,18.35
2022-09-11T04:43:49.256Z,18.34
2022-09-11T04:46:22.095Z,18.32
2022-09-11T04:48:59.429Z,18.30
2022-09-11T04:51:35.683Z,18.28
2022-09-11T04:54:08.886Z,18.23
2022-09-11T04:56:41.718Z,18.22
2022-09-11T04:59:16.598Z,18.20
2022-09-11T05:01:49.774Z,18.17
2022-09-11T05:04:26.170Z,18.16
2022-09-11T05:07:01.141Z,18.16
2022-09-11T05:09:36.330Z,18.16
2022-09-11T05:12:10.767Z,18.15
2022-09-11T05:14:43.535Z,18.16
2022-09-11T05:17:16.404Z,18.18
2022-09-11T05:19:49.424Z,18.18
2022-09-11T05:22:25.135Z,18.20
2022-09-11T05:24:58.409Z,18.20
2022-09-11T05:27:31.378Z,18.21
2022-09-11T05:30:04.263Z,18.25
2022-09-11T05:32:37.200Z,18.27
2022-09-11T05:35:10.436Z,18.28
2022-09-11T05:37:44.655Z,18.29
2022-09-11T05:40:17.720Z,18.31
2022-09-11T05:42:51.185Z,18.35
2022-09-11T05:45:25.102Z,18.36
2022-09-11T05:47:58.107Z,18.40
2022-09-11T05:50:32.844Z,18.41
2022-09-11T05:53:07.049Z,18.46
2022-09-11T05:55:41.031Z,18.48
2022-09-11T05:58:13.939Z,18.52
2022-09-11T06:00:47.713Z,18.57
2022-09-11T06:03:22.187Z,18.60
2022-09-11T06:05:54.963Z,18.64
2022-09-11T06:08:29.727Z,18.70
2022-09-11T06:11:07.176Z,18.73
2022-09-11T06:13:41.813Z,18.76
2022-09-11T06:16:18.521Z,18.81
2022-09-11T06:18:54.783Z,18.85
2022-09-11T06:21:29.248Z,18.87
2022-09-11T06:24:04.259Z,18.92
2022-09-11T06:26:37.314Z,18.94
2022-09-11T06:29:14.571Z,18.96
2022-09-11T06:31:51.307Z,19.00
2022-09-11T06:34:24.271Z,19.04
2022-09-11T06:36:57.132Z,19.08
2022-09-11T06:39:31.521Z,19.12
2022-09-11T06:42:04.619Z,19.16
2022-09-11T06:44:37.395Z,19.20
2022-09-11T06:47:10.220Z,19.26
2022-09-11T06:49:43.013Z,19.30
2022-09-11T06:52:15.823Z,19.34
2022-09-11T06:54:50.582Z,19.40
2022-09-11T06:57:23.495Z,19.46
2022-09-11T06:59:57.809Z,19.52
2022-09-11T07:02:30.607Z,19.59
2022-09-11T07:05:03.789Z,19.69
2022-09-11T07:07:36.589Z,19.76
2022-09-11T07:10:12.440Z,19.84
2022-09-11T07:12:45.258Z,19.92
2022-09-11T07:15:18.343Z,20.01
2022-09-11T07:17:51.370Z,20.11
2022-09-11T07:20:24.396Z,20.20
2022-09-11T07:22:57.807Z,20.31
2022-09-11T07:25:32.018Z,20.41
2022-09-11T07:28:05.137Z,20.51
2022-09-11T07:30:38.019Z,20.60
2022-09-11T07:33:11.020Z,20.71
2022-09-11T07:35:43.829Z,20.81
2022-09-11T07:38:16.607Z,20.94
2022-09-11T07:40:54.448Z,21.05
2022-09-11T07:43:27.474Z,21.16
2022-09-11T07:46:00.346Z,21.26
2022-09-11T07:48:34.235Z,21.36
2022-09-11T07:51:09.377Z,21.45
2022-09-11T07:53:44.292Z,21.51
2022-09-11T07:56:21.114Z,21.57
2022-09-11T07:58:56.032Z,21.62
2022-09-11T08:01:30.513Z,21.62
2022-09-11T08:04:05.568Z,21.62
2022-09-11T08:06:39.645Z,21.63
2022-09-11T08:09:15.629Z,21.63
2022-09-11T08:11:50.052Z,21.62
2022-09-11T08:14:24.766Z,21.61
2022-09-11T08:16:57.915Z,21.62
2022-09-11T08:19:32.096Z,21.59
2022-09-11T08:22:05.458Z,21.59
2022-09-11T08:24:38.472Z,21.58
2022-09-11T08:27:12.922Z,21.59
2022-09-11T08:29:45.898Z,21.61
2022-09-11T08:32:18.745Z,21.65
2022-09-11T08:34:51.564Z,21.71
2022-09-11T08:37:24.430Z,21.77
2022-09-11T08:39:57.304Z,21.82
2022-09-11T08:42:31.854Z,21.91
2022-09-11T08:45:08.504Z,22.00
2022-09-11T08:47:42.975Z,22.06
2022-09-11T08:50:21.235Z,22.13
2022-09-11T08:52:55.017Z,22.16
2022-09-11T08:55:35.116Z,22.20
2022-09-11T08:58:18.876Z,22.25
2022-09-11T09:00:59.035Z,22.26
2022-09-11T09:03:53.775Z,22.26
2022-09-11T09:06:43.879Z,22.25
2022-09-11T09:12:00.621Z,22.20
2022-09-11T09:15:11.996Z,22.20
2022-09-11T09:17:50.240Z,22.20
2022-09-11T09:20:27.304Z,22.25
2022-09-11T09:23:04.866Z,22.31
2022-09-11T09:25:41.236Z,22.40
2022-09-11T09:28:21.896Z,22.51
2022-09-11T09:30:58.099Z,22.64
2022-09-11T09:33:34.660Z,22.81
2022-09-11T09:36:19.352Z,23.04
2022-09-11T09:38:53.742Z,23.24
2022-09-11T09:41:59.188Z,23.51
2022-09-11T09:44:46.325Z,23.75
2022-09-11T09:47:19.627Z,23.97
2022-09-11T09:49:54.879Z,24.18
2022-09-11T09:52:36.238Z,24.35
2022-09-11T09:55:16.663Z,24.54
2022-09-11T09:57:50.434Z,24.67
2022-09-11T10:00:23.438Z,24.79
2022-09-11T10:02:58.271Z,24.91
2022-09-11T10:05:34.870Z,24.99
2022-09-11T10:08:25.425Z,25.03
2022-09-11T10:11:00.174Z,25.06
2022-09-11T10:13:35.058Z,25.04
2022-09-11T10:16:22.229Z,25.04
2022-09-11T10:18:56.985Z,25.02
2022-09-11T10:21:33.597Z,25.02
2022-09-11T10:24:24.036Z,25.04
2022-09-11T10:26:58.094Z,25.06
2022-09-11T10:29:32.134Z,25.11
2022-09-11T10:32:05.804Z,25.17
2022-09-11T10:34:42.029Z,25.23
2022-09-11T10:37:29.925Z,25.30
2022-09-11T10:40:08.255Z,25.35
2022-09-11T10:42:41.567Z,25.39
2022-09-11T10:45:17.761Z,25.42
2022-09-11T10:47:50.622Z,25.44
2022-09-11T10:50:26.900Z,25.44
2022-09-11T10:53:21.410Z,25.45
2022-09-11T10:56:01.788Z,25.45
2022-09-11T10:58:37.634Z,25.42
2022-09-11T11:01:10.672Z,25.42
2022-09-11T11:03:43.619Z,25.41
2022-09-11T11:06:32.651Z,25.40
2022-09-11T11:09:28.961Z,25.41
2022-09-11T11:12:32.056Z,25.41
2022-09-11T11:15:29.507Z,25.41
2022-09-11T11:18:27.858Z,25.38
2022-09-11T11:21:12.896Z,25.30
2022-09-11T11:24:03.964Z,25.19
2022-09-11T11:27:00.645Z,24.99
2022-09-11T11:30:03.540Z,24.80
2022-09-11T11:33:05.161Z,24.61
2022-09-11T11:35:47.108Z,24.41
2022-09-11T11:38:26.003Z,24.27
2022-09-11T11:41:04.474Z,24.13
2022-09-11T11:43:41.908Z,24.00
2022-09-11T11:46:18.150Z,23.89
2022-09-11T11:48:56.485Z,23.80
2022-09-11T11:51:33.631Z,23.72
2022-09-11T11:54:14.679Z,23.67
2022-09-11T11:56:51.842Z,23.59
2022-09-11T11:59:32.129Z,23.55
2022-09-11T12:02:18.758Z,23.51
2022-09-11T12:04:57.868Z,23.48
2022-09-11T12:07:32.633Z,23.46
2022-09-11T12:10:08.567Z,23.46
2022-09-11T12:12:47.783Z,23.47
2022-09-11T12:15:24.054Z,23.49
2022-09-11T12:18:02.672Z,23.54
2022-09-11T12:20:39.251Z,23.59
2022-09-11T12:23:55.905Z,23.67
2022-09-11T12:26:30.530Z,23.74
2022-09-11T12:29:51.730Z,23.82
2022-09-11T12:32:47.508Z,23.92
2022-09-11T12:35:28.760Z,23.97
2022-09-11T12:38:13.264Z,24.01
2022-09-11T12:40:54.267Z,24.04
2022-09-11T12:43:47.609Z,24.05
2022-09-11T12:47:12.653Z,24.04
2022-09-11T12:49:56.084Z,24.04
2022-09-11T12:52:42.868Z,24.03
2022-09-11T12:55:39.822Z,24.01
2022-09-11T12:58:28.692Z,24.01
2022-09-11T13:01:07.124Z,24.00
2022-09-11T13:03:50.347Z,24.02
2022-09-11T13:06:27.533Z,24.00
2022-09-11T13:09:02.452Z,23.98
2022-09-11T13:11:37.834Z,23.98
2022-09-11T13:14:57.021Z,23.99
2022-09-11T13:17:31.992Z,23.97
2022-09-11T13:20:22.648Z,23.99
2022-09-11T13:23:11.708Z,23.98
2022-09-11T13:25:45.100Z,23.98
2022-09-11T13:28:23.304Z,23.98
2022-09-11T13:31:02.100Z,24.00
2022-09-11T13:33:35.356Z,24.02
2022-09-11T13:36:14.211Z,24.09
2022-09-11T13:38:51.865Z,24.12
2022-09-11T13:41:29.802Z,24.15
2022-09-11T13:44:03.573Z,24.18
2022-09-11T13:46:36.536Z,24.20
2022-09-11T13:49:37.339Z,24.25
2022-09-11T13:52:14.025Z,24.26
2022-09-11T13:54:51.927Z,24.29
2022-09-11T13:57:28.314Z,24.28
2022-09-11T14:00:01.334Z,24.29
2022-09-11T14:02:49.546Z,24.32
2022-09-11T14:05:26.266Z,24.32
2022-09-11T14:08:02.402Z,24.31
2022-09-11T14:10:47.051Z,24.34
2022-09-11T14:13:27.693Z,24.37
2022-09-11T14:16:04.428Z,24.40
2022-09-11T14:18:42.295Z,24.42
2022-09-11T14:21:19.195Z,24.44
2022-09-11T14:23:53.730Z,24.42
2022-09-11T14:26:41.456Z,24.42
2022-09-11T14:29:24.728Z,24.38
2022-09-11T14:32:31.208Z,24.34
2022-09-11T14:35:07.621Z,24.28
2022-09-11T14:37:43.997Z,24.24
2022-09-11T14:40:19.471Z,24.19
2022-09-11T14:42:52.440Z,24.15
2022-09-11T14:45:26.574Z,24.10
2022-09-11T14:48:00.722Z,24.04
2022-09-11T14:50:34.987Z,24.00
2022-09-11T14:53:07.789Z,23.94
2022-09-11T14:55:40.754Z,23.89
2022-09-11T14:58:13.558Z,23.85
2022-09-11T15:00:46.518Z,23.80
2022-09-11T15:03:19.502Z,23.77
2022-09-11T15:05:56.503Z,23.75
2022-09-11T15:08:29.424Z,23.69
2022-09-11T15:11:02.287Z,23.68
2022-09-11T15:13:35.536Z,23.64
2022-09-11T15:16:09.506Z,23.62
2022-09-11T15:18:42.356Z,23.59
2022-09-11T15:21:16.607Z,23.58
2022-09-11T15:23:50.091Z,23.54
2022-09-11T15:26:22.986Z,23.51
2022-09-11T15:28:55.959Z,23.48
2022-09-11T15:31:30.511Z,23.46
2022-09-11T15:34:05.845Z,23.45
2022-09-11T15:36:41.619Z,23.44
2022-09-11T15:39:19.350Z,23.43
2022-09-11T15:41:52.191Z,23.38
2022-09-11T15:44:27.121Z,23.37
2022-09-11T15:47:00.243Z,23.34
2022-09-11T15:49:33.112Z,23.31
2022-09-11T15:52:07.629Z,23.27
2022-09-11T15:54:40.586Z,23.24
2022-09-11T15:57:13.470Z,23.20
2022-09-11T15:59:46.251Z,23.17
2022-09-11T16:02:21.708Z,23.14
2022-09-11T16:04:54.525Z,23.12
2022-09-11T16:07:29.032Z,23.11
2022-09-11T16:10:01.878Z,23.11
2022-09-11T16:12:34.815Z,23.11
2022-09-11T16:15:10.537Z,23.09
2022-09-11T16:17:43.390Z,23.09
2022-09-11T16:20:16.360Z,23.06
2022-09-11T16:22:50.857Z,23.06
2022-09-11T16:25:23.722Z,23.04
2022-09-11T16:27:58.643Z,23.03
2022-09-11T16:30:54.455Z,23.00
2022-09-11T16:33:24.411Z,22.98
2022-09-11T16:36:00.170Z,22.94
2022-09-11T16:38:36.941Z,22.92
2022-09-11T16:41:12.724Z,22.88
2022-09-11T16:43:49.729Z,22.84
2022-09-11T16:46:25.216Z,22.80
2022-09-11T16:49:01.635Z,22.76
2022-09-11T16:51:35.441Z,22.73
2022-09-11T16:54:09.750Z,22.69
2022-09-11T16:56:45.878Z,22.65
2022-09-11T16:59:19.914Z,22.62
2022-09-11T17:01:56.852Z,22.56
2022-09-11T17:04:29.682Z,22.53
2022-09-11T17:07:02.586Z,22.48
2022-09-11T17:09:37.123Z,22.46
2022-09-11T17:12:11.596Z,22.40
2022-09-11T17:14:44.993Z,22.36
2022-09-11T17:17:17.815Z,22.32
2022-09-11T17:19:51.412Z,22.28
2022-09-11T17:22:24.309Z,22.27
2022-09-11T17:27:31.482Z,22.19
2022-09-11T17:30:05.152Z,22.15
2022-09-11T17:32:38.759Z,22.12
2022-09-11T17:35:12.356Z,22.07
2022-09-11T17:37:46.061Z,22.03
2022-09-11T17:40:20.659Z,21.98
2022-09-11T17:42:53.486Z,21.91
2022-09-11T17:45:26.433Z,21.82
2022-09-11T17:48:01.190Z,21.75
2022-09-11T17:50:35.574Z,21.68
2022-09-11T17:53:08.386Z,21.60
2022-09-11T17:55:42.715Z,21.52
2022-09-11T17:58:15.571Z,21.45
2022-09-11T18:00:48.469Z,21.37
2022-09-11T18:03:22.821Z,21.30
2022-09-11T18:05:56.250Z,21.24
2022-09-11T18:08:31.299Z,21.16
2022-09-11T18:11:05.780Z,21.09
2022-09-11T18:13:38.610Z,21.01
2022-09-11T18:16:12.591Z,20.95
2022-09-11T18:18:45.417Z,20.87
2022-09-11T18:21:18.501Z,20.80
2022-09-11T18:23:51.453Z,20.72
2022-09-11T18:26:29.688Z,20.67
2022-09-11T18:29:05.231Z,20.57
2022-09-11T18:31:40.582Z,20.51
2022-09-11T18:34:15.365Z,20.44
2022-09-11T18:36:48.893Z,20.37
2022-09-11T18:39:22.643Z,20.29
2022-09-11T18:41:57.097Z,20.23
2022-09-11T18:44:30.183Z,20.18
2022-09-11T18:47:02.972Z,20.09
2022-09-11T18:49:35.853Z,20.03
2022-09-11T18:52:09.935Z,19.97
2022-09-11T18:54:42.722Z,19.89
2022-09-11T18:57:17.262Z,19.78
2022-09-11T18:59:52.355Z,19.68
2022-09-11T19:02:25.141Z,19.58
2022-09-11T19:04:57.881Z,19.47
2022-09-11T19:07:32.479Z,19.36
2022-09-11T19:10:07.404Z,19.25
2022-09-11T19:12:42.062Z,19.15
2022-09-11T19:15:14.911Z,19.03
2022-09-11T19:17:49.545Z,18.93
2022-09-11T19:20:22.474Z,18.83
2022-09-11T19:22:58.668Z,18.72
2022-09-11T19:25:36.155Z,18.62
2022-09-11T19:28:11.991Z,18.54
2022-09-11T19:30:45.021Z,18.41
2022-09-11T19:33:17.941Z,18.31
2022-09-11T19:35:56.467Z,18.24
2022-09-11T19:38:31.028Z,18.14
2022-09-11T19:41:05.564Z,18.05
2022-09-11T19:43:42.399Z,17.96
2022-09-11T19:46:16.887Z,17.86
2022-09-11T19:48:49.905Z,17.78
2022-09-11T19:51:25.177Z,17.68
2022-09-11T19:54:00.491Z,17.61
2022-09-11T19:56:38.471Z,17.53
2022-09-11T19:59:14.290Z,17.45
2022-09-11T20:01:47.413Z,17.36
2022-09-11T20:04:20.254Z,17.29
2022-09-11T20:09:31.529Z,17.15
2022-09-11T20:12:04.968Z,17.09
2022-09-11T20:14:42.836Z,17.04
2022-09-11T20:17:15.896Z,16.95
2022-09-11T20:19:48.681Z,16.91
2022-09-11T20:22:22.144Z,16.83
2022-09-11T20:24:54.997Z,16.79
2022-09-11T20:27:28.962Z,16.73
2022-09-11T20:30:03.629Z,16.67
2022-09-11T20:32:38.906Z,16.61
2022-09-11T20:35:12.263Z,16.54
2022-09-11T20:37:45.045Z,16.50
2022-09-11T20:40:18.060Z,16.43
2022-09-11T20:42:50.852Z,16.38
2022-09-11T20:45:25.374Z,16.33
2022-09-11T20:47:58.261Z,16.27
2022-09-11T20:50:31.372Z,16.21
2022-09-11T20:53:04.197Z,16.15
2022-09-11T20:55:37.244Z,16.10
2022-09-11T20:58:10.439Z,16.06
2022-09-11T21:00:46.026Z,16.02
2022-09-11T21:03:18.799Z,15.95
2022-09-11T21:05:51.913Z,15.91
2022-09-11T21:08:25.739Z,15.87
2022-09-11T21:11:03.132Z,15.82
2022-09-11T21:13:36.829Z,15.77
2022-09-11T21:16:12.985Z,15.73
2022-09-11T21:18:48.234Z,15.68
2022-09-11T21:21:22.302Z,15.62
2022-09-11T21:23:56.071Z,15.59
2022-09-11T21:26:30.083Z,15.55
2022-09-11T21:29:05.512Z,15.51
2022-09-11T21:31:39.716Z,15.47
2022-09-11T21:34:12.613Z,15.43
2022-09-11T21:36:45.523Z,15.38
2022-09-11T21:39:18.282Z,15.35
2022-09-11T21:41:51.174Z,15.31
2022-09-11T21:44:24.227Z,15.28
2022-09-11T21:46:58.590Z,15.26
2022-09-11T21:49:31.420Z,15.21
2022-09-11T21:52:04.276Z,15.19
2022-09-11T21:54:37.137Z,15.15
2022-09-11T21:57:10.029Z,15.13
2022-09-11T21:59:42.775Z,15.09
2022-09-11T22:02:18.007Z,15.09
2022-09-11T22:04:51.392Z,15.04
2022-09-11T22:07:24.401Z,15.01
2022-09-11T22:09:57.237Z,14.97
2022-09-11T22:12:30.117Z,14.94
2022-09-11T22:15:03.378Z,14.91
2022-09-11T22:17:37.624Z,14.88
2022-09-11T22:20:11.566Z,14.85
2022-09-11T22:22:44.792Z,14.82
2022-09-11T22:25:17.680Z,14.79
2022-09-11T22:27:50.490Z,14.76
2022-09-11T22:30:23.860Z,14.72
2022-09-11T22:32:59.852Z,14.70
2022-09-11T22:35:35.617Z,14.68
2022-09-11T22:38:08.485Z,14.63
2022-09-11T22:40:41.352Z,14.62
2022-09-11T22:43:14.200Z,14.59
2022-09-11T22:45:51.090Z,14.58
2022-09-11T22:48:25.743Z,14.53
2022-09-11T22:50:59.468Z,14.48
2022-09-11T22:53:32.729Z,14.45
2022-09-11T22:56:05.622Z,14.43
2022-09-11T22:58:39.381Z,14.38
2022-09-11T23:01:17.571Z,14.35
2022-09-11T23:03:54.515Z,14.33
2022-09-11T23:06:45.291Z,14.30
2022-09-11T23:09:18.403Z,14.27
2022-09-11T23:11:51.555Z,14.25
2022-09-11T23:14:24.751Z,14.22
2022-09-11T23:17:00.017Z,14.20
2022-09-11T23:19:35.374Z,14.17
2022-09-11T23:22:08.177Z,14.15
2022-09-11T23:24:41.195Z,14.13
2022-09-11T23:27:14.072Z,14.09
2022-09-11T23:29:48.517Z,14.06
2022-09-11T23:32:21.673Z,14.03
2022-09-11T23:34:56.055Z,14.01
2022-09-11T23:37:29.015Z,13.96
2022-09-11T23:40:02.327Z,13.96
2022-09-11T23:42:37.514Z,13.93
2022-09-11T23:45:12.775Z,13.89
2022-09-11T23:47:45.565Z,13.87
2022-09-11T23:50:20.756Z,13.85
2022-09-11T23:52:53.520Z,13.83
2022-09-11T23:55:26.393Z,13.79
2022-09-11T23:57:59.373Z,13.79
